Time;durP1;ratioP1;P1;durP2;ratioP2;P2;SDS_P1;SDS_P2;PMS_P1;PMS_P2;Temp;Humidity;BMP_temperature;BMP_pressure;BME280_temperature;BME280_humidity;BME280_pressure;Samples;Min_cycle;Max_cycle;Signal;HPM_P1;HPM_P2
2022/01/26 00:00:18;;;;;;;29.20;15.73;;;7.10;78.30;;;;;;5045436;28;20037;-82
2022/01/26 00:05:47;;;;;;;28.35;15.75;;;7.10;78.30;;;;;;5031022;28;20027;-82
2022/01/26 00:08:13;;;;;;;28.13;14.88;;;7.10;78.30;;;;;;5031151;28;20044;-81
2022/01/26 00:10:39;;;;;;;29.90;16.42;;;7.10;78.30;;;;;;5030831;28;20021;-83
2022/01/26 00:13:05;;;;;;;30.85;17.42;;;7.10;78.30;;;;;;5047757;28;20032;-82
2022/01/26 00:15:31;;;;;;;29.35;15.50;;;7.10;78.40;;;;;;5019449;28;20063;-81
2022/01/26 00:17:57;;;;;;;29.73;15.75;;;7.00;78.30;;;;;;5031221;28;20378;-82
2022/01/26 00:38:35;;;;;;;;;;;7.00;78.30;;;;;;5046587;28;20493;-81
2022/01/26 00:41:06;;;;;;;27.80;15.00;;;7.00;78.20;;;;;;5030252;28;19925;-82
2022/01/26 00:43:34;;;;;;;26.08;14.05;;;7.00;78.20;;;;;;5030500;28;20033;-83
2022/01/26 00:46:01;;;;;;;29.52;15.73;;;7.00;78.30;;;;;;5035746;28;20044;-83
2022/01/26 00:48:31;;;;;;;28.83;15.20;;;7.00;78.40;;;;;;5030984;28;20029;-83
2022/01/26 00:51:00;;;;;;;30.27;16.02;;;6.90;78.30;;;;;;5031117;28;20025;-83
2022/01/26 00:53:32;;;;;;;29.55;16.45;;;6.90;78.30;;;;;;5031022;28;20478;-83
2022/01/26 00:55:59;;;;;;;31.20;16.55;;;7.00;78.40;;;;;;5013836;28;20057;-84
2022/01/26 00:58:25;;;;;;;29.50;16.23;;;7.00;78.40;;;;;;5043291;28;20524;-82
2022/01/26 01:00:51;;;;;;;31.58;17.27;;;7.00;78.40;;;;;;5014427;28;20030;-82
2022/01/26 01:03:18;;;;;;;32.00;18.63;;;7.00;78.30;;;;;;5046534;28;20026;-83
2022/01/26 01:05:53;;;;;;;30.90;16.20;;;7.00;78.30;;;;;;5014099;28;20029;-82
2022/01/26 01:08:22;;;;;;;30.67;16.23;;;7.00;78.40;;;;;;5030638;28;20022;-82
2022/01/26 01:10:50;;;;;;;30.80;16.05;;;7.00;78.30;;;;;;5030573;28;20021;-82
2022/01/26 01:13:20;;;;;;;32.45;16.20;;;7.00;78.30;;;;;;5030144;28;20037;-82
2022/01/26 01:15:47;;;;;;;31.58;16.25;;;6.90;78.20;;;;;;5007864;28;20026;-81
2022/01/26 01:26:40;;;;;;;30.20;15.63;;;7.00;78.30;;;;;;5042177;28;20556;-85
2022/01/26 01:34:15;;;;;;;27.75;16.00;;;6.90;78.30;;;;;;5046438;28;20021;-82
2022/01/26 01:36:43;;;;;;;31.73;16.33;;;6.90;78.30;;;;;;5035850;28;20041;-83
2022/01/26 01:39:09;;;;;;;29.90;16.13;;;6.90;78.30;;;;;;5017309;28;20029;-82
2022/01/26 01:41:38;;;;;;;29.00;16.25;;;6.90;78.30;;;;;;5049982;28;20462;-82
2022/01/26 01:44:05;;;;;;;31.05;16.70;;;6.90;78.30;;;;;;5031475;28;20025;-82
2022/01/26 01:46:32;;;;;;;31.25;17.17;;;6.90;78.30;;;;;;5016228;28;20129;-82
2022/01/26 01:48:59;;;;;;;30.33;16.52;;;6.90;78.20;;;;;;5033214;28;20033;-81
2022/01/26 01:51:30;;;;;;;33.45;17.15;;;6.90;78.20;;;;;;5033474;28;20493;-84
2022/01/26 01:53:56;;;;;;;32.70;16.05;;;6.90;78.20;;;;;;5033464;28;20462;-82
2022/01/26 01:56:25;;;;;;;31.80;16.83;;;6.90;78.30;;;;;;5033456;28;20038;-82
2022/01/26 01:58:53;;;;;;;32.05;17.20;;;6.90;78.20;;;;;;5021123;28;20031;-81
2022/01/26 02:01:19;;;;;;;31.33;16.20;;;6.90;78.20;;;;;;5016355;28;20064;-86
2022/01/26 02:03:45;;;;;;;30.58;16.00;;;6.90;78.20;;;;;;5033374;28;20029;-82
2022/01/26 02:06:11;;;;;;;27.33;15.05;;;6.90;78.20;;;;;;5047238;28;20017;-82
2022/01/26 02:08:36;;;;;;;30.77;15.48;;;6.90;78.20;;;;;;5014566;28;20386;-82
2022/01/26 02:11:06;;;;;;;30.30;16.77;;;6.90;78.20;;;;;;5021162;28;20026;-85
2022/01/26 02:13:39;;;;;;;31.58;16.10;;;6.90;78.20;;;;;;5031152;28;20073;-82
2022/01/26 02:16:17;;;;;;;31.15;16.35;;;6.90;78.20;;;;;;5016710;28;20480;-83
2022/01/26 02:21:50;;;;;;;28.73;15.30;;;6.90;78.30;;;;;;5032732;28;20108;-82
2022/01/26 03:09:31;;;;;;;28.95;15.60;;;6.70;78.30;;;;;;5031247;28;20037;-82
2022/01/26 03:11:59;;;;;;;28.77;15.10;;;6.70;78.30;;;;;;5031060;28;20560;-83
2022/01/26 03:14:43;;;;;;;30.23;16.27;;;6.80;78.40;;;;;;5030709;28;20076;-83
2022/01/26 03:19:46;;;;;;;29.42;15.57;;;6.70;78.40;;;;;;5030609;28;20052;-83
2022/01/26 03:35:13;;;;;;;25.25;13.45;;;6.70;78.20;;;;;;5026735;28;20040;-83
2022/01/26 03:37:40;;;;;;;27.88;15.15;;;6.70;78.30;;;;;;5043543;28;20036;-81
2022/01/26 03:40:13;;;;;;;26.98;14.15;;;6.70;78.40;;;;;;5012365;28;20052;-80
2022/01/26 03:42:40;;;;;;;28.42;15.75;;;6.70;78.40;;;;;;5015228;28;20111;-82
2022/01/26 03:45:06;;;;;;;30.30;15.85;;;6.70;78.40;;;;;;5048162;28;20053;-82
2022/01/26 03:47:32;;;;;;;31.77;16.13;;;6.70;78.40;;;;;;5027991;28;20033;-82
2022/01/26 03:49:58;;;;;;;28.25;16.55;;;6.70;78.40;;;;;;5018594;28;20036;-83
2022/01/26 03:52:23;;;;;;;29.55;15.35;;;6.70;78.40;;;;;;5010735;28;20040;-80
2022/01/26 03:54:49;;;;;;;31.25;15.73;;;6.70;78.40;;;;;;5022190;28;20092;-84
2022/01/26 03:57:15;;;;;;;30.60;16.55;;;6.70;78.40;;;;;;5036286;28;20083;-81
2022/01/26 03:59:41;;;;;;;32.63;17.30;;;6.70;78.30;;;;;;5015530;28;20087;-82
2022/01/26 04:02:07;;;;;;;29.85;15.90;;;6.70;78.30;;;;;;5031436;28;20026;-83
2022/01/26 04:04:40;;;;;;;29.55;16.75;;;6.70;78.40;;;;;;5031254;28;20064;-81
2022/01/26 04:07:06;;;;;;;27.38;15.18;;;6.70;78.30;;;;;;5030897;28;20080;-83
2022/01/26 04:09:32;;;;;;;31.08;16.10;;;6.70;78.30;;;;;;5014676;28;20037;-82
2022/01/26 04:11:57;;;;;;;29.33;15.90;;;6.70;78.30;;;;;;5014766;28;20382;-82
2022/01/26 04:14:28;;;;;;;27.08;14.90;;;6.70;78.30;;;;;;5030464;28;20417;-81
2022/01/26 04:16:54;;;;;;;28.65;14.93;;;6.70;78.30;;;;;;5030392;28;20137;-81
2022/01/26 04:19:20;;;;;;;31.80;16.50;;;6.70;78.30;;;;;;5014209;28;20073;-83
2022/01/26 04:22:00;;;;;;;28.42;15.38;;;6.70;78.30;;;;;;5014876;28;20040;-82
2022/01/26 04:24:33;;;;;;;29.25;16.30;;;6.70;78.30;;;;;;5014752;28;20037;-81
2022/01/26 04:27:04;;;;;;;27.55;15.55;;;6.70;78.30;;;;;;5027989;28;20124;-82
2022/01/26 04:29:32;;;;;;;30.98;15.95;;;6.70;78.30;;;;;;5047120;28;20546;-82
2022/01/26 04:31:59;;;;;;;30.67;15.77;;;6.70;78.40;;;;;;5029998;28;20064;-81
2022/01/26 04:34:26;;;;;;;29.92;15.82;;;6.70;78.30;;;;;;5046178;28;20025;-82
2022/01/26 04:37:08;;;;;;;32.00;16.58;;;6.70;78.30;;;;;;5029421;28;20041;-84
2022/01/26 04:39:41;;;;;;;27.83;15.45;;;6.70;78.30;;;;;;5010110;28;20062;-81
2022/01/26 04:42:13;;;;;;;30.58;15.75;;;6.70;78.30;;;;;;5029647;28;20026;-81
2022/01/26 04:44:46;;;;;;;29.05;15.15;;;6.70;78.30;;;;;;5030921;28;20029;-83
2022/01/26 04:47:12;;;;;;;27.33;15.43;;;6.70;78.30;;;;;;5046133;28;20033;-82
2022/01/26 04:49:38;;;;;;;31.10;16.35;;;6.70;78.30;;;;;;5014298;28;20098;-83
2022/01/26 04:52:04;;;;;;;30.27;16.15;;;6.70;78.40;;;;;;5030042;28;20028;-82
2022/01/26 04:54:30;;;;;;;29.83;15.95;;;6.70;78.40;;;;;;5030356;28;20028;-82
2022/01/26 04:56:56;;;;;;;28.65;16.05;;;6.60;78.30;;;;;;5015973;28;20091;-82
2022/01/26 04:59:22;;;;;;;28.55;16.08;;;6.70;78.40;;;;;;5034633;28;20450;-82
2022/01/26 05:01:48;;;;;;;30.02;16.30;;;6.70;78.40;;;;;;5034881;28;20120;-82
2022/01/26 05:04:13;;;;;;;32.15;17.63;;;6.70;78.40;;;;;;5039363;28;20030;-85
2022/01/26 05:06:39;;;;;;;28.73;15.95;;;6.70;78.40;;;;;;5034745;28;20504;-83
2022/01/26 05:09:05;;;;;;;30.60;16.27;;;6.60;78.30;;;;;;5033216;28;20037;-82
2022/01/26 05:11:35;;;;;;;29.40;15.18;;;6.70;78.40;;;;;;5034146;28;20033;-86
2022/01/26 05:14:02;;;;;;;28.40;14.98;;;6.70;78.40;;;;;;5033909;28;20253;-82
2022/01/26 05:16:28;;;;;;;28.80;15.73;;;6.70;78.40;;;;;;5038816;28;20021;-82
2022/01/26 05:18:55;;;;;;;30.40;16.38;;;6.70;78.40;;;;;;5020666;28;20121;-82
2022/01/26 05:21:23;;;;;;;30.35;16.13;;;6.70;78.40;;;;;;5007926;28;20129;-82
2022/01/26 05:23:49;;;;;;;29.10;16.85;;;6.70;78.40;;;;;;4999846;28;20104;-82
2022/01/26 05:26:16;;;;;;;28.65;15.50;;;6.70;78.40;;;;;;5018150;28;20029;-86
2022/01/26 05:28:42;;;;;;;28.67;15.75;;;6.70;78.40;;;;;;5018610;28;20038;-83
2022/01/26 05:31:08;;;;;;;29.38;15.60;;;6.70;78.40;;;;;;5018233;28;20017;-82
2022/01/26 05:33:34;;;;;;;30.60;16.33;;;6.70;78.40;;;;;;5034184;28;20116;-82
2022/01/26 05:35:59;;;;;;;28.38;16.05;;;6.70;78.40;;;;;;5034688;28;20032;-82
2022/01/26 05:38:25;;;;;;;32.78;17.10;;;6.70;78.40;;;;;;5017596;28;20061;-82
2022/01/26 05:40:54;;;;;;;27.52;15.32;;;6.70;78.40;;;;;;5017209;28;20719;-85
2022/01/26 05:43:20;;;;;;;27.02;15.27;;;6.70;78.40;;;;;;5049865;28;20033;-87
2022/01/26 05:45:50;;;;;;;30.15;16.25;;;6.70;78.40;;;;;;5025218;28;20029;-84
2022/01/26 05:48:25;;;;;;;29.92;15.43;;;6.70;78.40;;;;;;5016239;28;20086;-83
2022/01/26 05:50:55;;;;;;;26.52;15.27;;;6.70;78.40;;;;;;5033698;28;20054;-83
2022/01/26 05:53:21;;;;;;;28.20;15.38;;;6.70;78.40;;;;;;5016244;28;20038;-83
2022/01/26 05:55:54;;;;;;;30.20;16.35;;;6.70;78.40;;;;;;5017365;28;20087;-83
2022/01/26 05:58:20;;;;;;;27.67;14.68;;;6.70;78.40;;;;;;5013036;28;20152;-84
2022/01/26 06:00:50;;;;;;;27.63;15.15;;;6.60;78.30;;;;;;5033536;28;20057;-83
2022/01/26 06:03:16;;;;;;;28.25;15.88;;;6.70;78.40;;;;;;5032743;28;20045;-84
2022/01/26 06:05:42;;;;;;;28.50;16.20;;;6.70;78.40;;;;;;5015442;28;20042;-83
2022/01/26 06:08:09;;;;;;;28.02;16.13;;;6.70;78.40;;;;;;5014974;28;20025;-85
2022/01/26 06:10:36;;;;;;;30.63;16.30;;;6.60;78.40;;;;;;5033112;28;20107;-83
2022/01/26 06:13:12;;;;;;;29.92;16.90;;;6.70;78.40;;;;;;5032291;28;20069;-84
2022/01/26 06:16:06;;;;;;;30.92;16.40;;;6.70;78.50;;;;;;5016776;28;20044;-83
2022/01/26 06:18:46;;;;;;;28.88;15.20;;;6.70;78.50;;;;;;5017181;28;20120;-82
2022/01/26 06:21:38;;;;;;;27.20;15.63;;;6.70;78.40;;;;;;5010697;28;20060;-82
2022/01/26 06:24:16;;;;;;;29.08;16.23;;;6.70;78.40;;;;;;5011682;28;20038;-81
2022/01/26 06:26:43;;;;;;;27.00;15.00;;;6.60;78.30;;;;;;5041168;28;20485;-81
2022/01/26 06:29:11;;;;;;;25.60;14.82;;;6.70;78.40;;;;;;5031617;28;20112;-82
2022/01/26 06:31:40;;;;;;;27.60;15.85;;;6.70;78.40;;;;;;5037992;28;20029;-83
2022/01/26 06:40:31;;;;;;;30.58;15.98;;;6.60;78.50;;;;;;5022023;28;20061;-81
2022/01/26 06:43:07;;;;;;;27.13;14.70;;;6.60;78.30;;;;;;5010705;28;20052;-84
2022/01/26 06:45:38;;;;;;;29.42;15.25;;;6.60;79.00;;;;;;4999737;28;20040;-83
2022/01/26 06:50:37;;;;;;;30.60;17.00;;;6.60;78.40;;;;;;5032710;28;20038;-82
2022/01/26 06:53:03;;;;;;;30.10;16.73;;;6.60;78.40;;;;;;5015930;28;20032;-82
2022/01/26 06:55:29;;;;;;;27.10;14.90;;;6.60;78.40;;;;;;5028269;28;20394;-81
2022/01/26 06:57:55;;;;;;;32.28;17.17;;;6.60;78.40;;;;;;5012350;28;20025;-81
2022/01/26 07:00:22;;;;;;;27.90;15.05;;;6.70;78.50;;;;;;5012510;28;20129;-90
2022/01/26 07:02:48;;;;;;;31.10;16.80;;;6.70;78.50;;;;;;5012335;28;20040;-82
2022/01/26 07:05:24;;;;;;;31.95;17.50;;;6.60;78.40;;;;;;5019872;28;20022;-82
2022/01/26 07:07:55;;;;;;;29.58;15.85;;;6.60;78.40;;;;;;5032663;28;20054;-82
2022/01/26 07:10:22;;;;;;;30.05;16.77;;;6.70;78.50;;;;;;5015934;28;20040;-82
2022/01/26 07:12:55;;;;;;;31.42;17.55;;;6.70;78.40;;;;;;5032208;28;20048;-82
2022/01/26 07:21:26;;;;;;;30.48;15.63;;;6.70;78.40;;;;;;5030733;28;20077;-82
2022/01/26 07:24:07;;;;;;;31.55;16.15;;;6.60;78.40;;;;;;5018006;28;20030;-82
2022/01/26 07:26:53;;;;;;;32.00;15.73;;;6.70;78.40;;;;;;5011735;28;20041;-82
2022/01/26 07:29:23;;;;;;;31.08;16.25;;;6.60;78.40;;;;;;5012015;28;20037;-81
2022/01/26 07:31:59;;;;;;;29.75;17.50;;;6.60;78.40;;;;;;5031531;28;20128;-81
2022/01/26 07:34:36;;;;;;;28.08;15.93;;;6.70;78.50;;;;;;5047786;28;20042;-82
2022/01/26 07:37:25;;;;;;;30.73;16.73;;;6.60;78.50;;;;;;5032914;28;20040;-83
2022/01/26 07:40:06;;;;;;;31.98;16.83;;;6.60;78.40;;;;;;5031286;28;20037;-81
2022/01/26 07:42:42;;;;;;;32.45;16.02;;;6.70;78.50;;;;;;5014444;28;20394;-83
2022/01/26 07:45:49;;;;;;;29.95;16.60;;;6.60;78.40;;;;;;5031853;28;20026;-80
2022/01/26 07:49:30;;;;;;;30.70;16.65;;;6.60;78.60;;;;;;5021697;28;20042;-82
2022/01/26 07:55:49;;;;;;;28.95;15.50;;;6.60;78.50;;;;;;5011904;28;20042;-82
2022/01/26 07:58:23;;;;;;;30.33;15.80;;;6.60;78.50;;;;;;5031844;28;20067;-82
2022/01/26 08:01:14;;;;;;;28.15;15.80;;;6.60;78.50;;;;;;5030501;28;20029;-82
2022/01/26 08:03:48;;;;;;;30.25;16.63;;;6.60;78.60;;;;;;5027928;28;20398;-81
2022/01/26 08:06:17;;;;;;;30.65;16.20;;;6.60;78.50;;;;;;5013588;28;20046;-82
2022/01/26 08:08:46;;;;;;;31.52;17.73;;;6.60;78.50;;;;;;5010881;28;20049;-81
2022/01/26 08:11:19;;;;;;;31.25;17.33;;;6.60;78.60;;;;;;4996029;28;20042;-82
2022/01/26 08:13:44;;;;;;;31.90;17.17;;;6.60;78.50;;;;;;4994698;28;20042;-75
2022/01/26 08:16:10;;;;;;;33.97;17.50;;;6.60;78.50;;;;;;5028473;28;20034;-81
2022/01/26 08:18:50;;;;;;;31.42;16.90;;;6.60;78.50;;;;;;5030889;28;20079;-82
2022/01/26 08:21:48;;;;;;;34.70;17.52;;;6.60;78.50;;;;;;5013168;28;20141;-83
2022/01/26 08:24:40;;;;;;;30.70;15.88;;;6.60;78.50;;;;;;5044336;28;20049;-82
2022/01/26 08:27:39;;;;;;;29.45;15.45;;;6.60;78.50;;;;;;4997998;28;20461;-83
2022/01/26 08:30:38;;;;;;;30.80;16.05;;;6.60;78.60;;;;;;5027865;28;20497;-82
2022/01/26 08:33:12;;;;;;;33.78;16.98;;;6.60;78.40;;;;;;5026446;28;20506;-83
2022/01/26 08:35:38;;;;;;;31.00;16.42;;;6.60;78.50;;;;;;5014365;28;20034;-85
2022/01/26 08:38:10;;;;;;;30.13;15.73;;;6.60;78.50;;;;;;5014632;28;20429;-83
2022/01/26 08:40:43;;;;;;;30.58;16.73;;;6.60;78.60;;;;;;5021173;28;20073;-82
2022/01/26 08:43:10;;;;;;;30.85;17.33;;;6.60;78.50;;;;;;5034779;28;20107;-84
2022/01/26 08:45:38;;;;;;;33.42;17.30;;;6.60;78.50;;;;;;5031698;28;20041;-84
2022/01/26 08:48:04;;;;;;;27.95;15.27;;;6.60;78.50;;;;;;5014172;28;20110;-83
2022/01/26 08:50:31;;;;;;;30.77;16.48;;;6.60;78.50;;;;;;5013320;28;20113;-83
2022/01/26 08:53:02;;;;;;;32.20;16.77;;;6.60;78.50;;;;;;5014629;28;20101;-82
2022/01/26 08:55:36;;;;;;;31.10;16.58;;;6.60;78.50;;;;;;5013707;28;20068;-88
2022/01/26 08:58:05;;;;;;;31.85;16.92;;;6.70;78.50;;;;;;5030177;28;20441;-83
2022/01/26 09:00:35;;;;;;;31.80;17.15;;;6.70;78.50;;;;;;5030278;28;20026;-82
2022/01/26 09:03:01;;;;;;;31.92;17.00;;;6.70;78.50;;;;;;5047690;28;20088;-83
2022/01/26 09:05:27;;;;;;;31.75;16.85;;;6.70;78.50;;;;;;5031144;28;20026;-84
2022/01/26 09:07:57;;;;;;;29.02;17.45;;;6.70;78.50;;;;;;5047495;28;20042;-83
2022/01/26 09:10:32;;;;;;;29.63;15.77;;;6.70;78.50;;;;;;5031995;28;20109;-83
2022/01/26 09:13:03;;;;;;;30.05;17.80;;;6.70;78.50;;;;;;5031447;28;20478;-83
2022/01/26 09:15:39;;;;;;;29.77;16.50;;;6.70;78.50;;;;;;5015868;28;20357;-84
2022/01/26 09:21:25;;;;;;;29.63;14.85;;;6.70;78.50;;;;;;5009768;28;20034;-83
2022/01/26 09:24:00;;;;;;;30.17;16.10;;;6.70;78.50;;;;;;5005073;28;20187;-84
2022/01/26 09:26:34;;;;;;;29.15;15.63;;;6.70;78.60;;;;;;5010711;28;20054;-87
2022/01/26 09:29:03;;;;;;;28.40;15.82;;;6.70;78.50;;;;;;5047237;28;20402;-84
2022/01/26 09:31:30;;;;;;;27.55;15.25;;;6.70;78.50;;;;;;5030989;28;20446;-86
2022/01/26 09:33:58;;;;;;;29.40;15.23;;;6.70;78.50;;;;;;5013653;28;20037;-83
2022/01/26 09:36:27;;;;;;;28.58;15.48;;;6.70;78.50;;;;;;5013674;28;20030;-84
2022/01/26 09:38:54;;;;;;;28.58;15.98;;;6.70;78.60;;;;;;5030233;28;20025;-84
2022/01/26 09:41:26;;;;;;;31.15;16.23;;;6.70;78.50;;;;;;5013986;28;20022;-83
2022/01/26 09:44:37;;;;;;;28.05;15.30;;;6.70;78.50;;;;;;5016357;28;20042;-84
2022/01/26 09:47:06;;;;;;;27.95;15.65;;;6.70;78.70;;;;;;5030933;28;20101;-82
2022/01/26 09:49:33;;;;;;;30.60;15.48;;;6.70;78.50;;;;;;5010764;28;20095;-89
2022/01/26 09:52:29;;;;;;;29.70;16.40;;;6.80;78.60;;;;;;5017068;28;20033;-85
2022/01/26 09:54:59;;;;;;;28.67;16.52;;;6.70;78.60;;;;;;5033436;28;20033;-84
2022/01/26 09:57:27;;;;;;;30.20;17.05;;;6.80;78.60;;;;;;5016832;28;20029;-85
2022/01/26 09:59:53;;;;;;;32.78;17.67;;;6.70;78.50;;;;;;5033012;28;20047;-84
2022/01/26 10:02:27;;;;;;;29.70;15.95;;;6.70;78.60;;;;;;5017456;28;20116;-84
2022/01/26 10:05:06;;;;;;;29.63;16.17;;;6.70;78.70;;;;;;5017124;28;20044;-85
2022/01/26 10:10:31;;;;;;;30.50;16.63;;;6.80;78.50;;;;;;5034609;28;20029;-85
2022/01/26 10:15:44;;;;;;;27.40;14.77;;;6.80;78.50;;;;;;5032648;28;20033;-84
2022/01/26 10:18:15;;;;;;;25.75;14.75;;;6.80;78.50;;;;;;5016726;28;20064;-84
2022/01/26 10:20:47;;;;;;;30.98;16.98;;;6.80;78.60;;;;;;5016577;28;20099;-84
2022/01/26 10:23:22;;;;;;;28.05;14.43;;;6.80;78.60;;;;;;5016765;28;20042;-84
2022/01/26 10:26:08;;;;;;;26.83;15.05;;;6.80;78.60;;;;;;5016973;28;20030;-85
2022/01/26 10:28:43;;;;;;;28.40;15.88;;;6.80;78.70;;;;;;5034281;28;20056;-85
2022/01/26 10:31:17;;;;;;;27.52;15.75;;;6.80;78.60;;;;;;5017538;28;20036;-85
2022/01/26 10:33:57;;;;;;;25.85;15.18;;;6.80;78.60;;;;;;5016652;28;20029;-85
2022/01/26 10:36:43;;;;;;;29.42;16.13;;;6.80;78.70;;;;;;5006278;28;20112;-84
2022/01/26 10:39:11;;;;;;;;;;;6.80;78.70;;;;;;5013635;28;20049;-84
2022/01/26 10:41:39;;;;;;;25.40;13.63;;;6.80;78.60;;;;;;5013231;28;19909;-85
2022/01/26 10:44:06;;;;;;;26.48;14.38;;;6.80;78.50;;;;;;5029748;28;20053;-85
2022/01/26 10:46:39;;;;;;;24.83;14.77;;;6.80;78.70;;;;;;5028635;28;20022;-84
2022/01/26 10:49:19;;;;;;;26.50;15.00;;;6.80;78.70;;;;;;5011579;28;20033;-84
2022/01/26 10:54:35;;;;;;;26.48;15.32;;;6.80;78.70;;;;;;5031854;28;20034;-85
2022/01/26 10:57:02;;;;;;;27.95;15.68;;;6.90;78.80;;;;;;5015611;28;20029;-85
2022/01/26 10:59:28;;;;;;;29.52;15.77;;;6.80;78.70;;;;;;5015785;28;20030;-83
2022/01/26 11:01:59;;;;;;;27.27;15.20;;;6.90;78.70;;;;;;5012347;28;20037;-84
2022/01/26 11:04:26;;;;;;;27.20;15.25;;;6.80;78.70;;;;;;4996330;28;20034;-84
2022/01/26 11:06:54;;;;;;;26.00;15.57;;;6.90;78.70;;;;;;5012365;28;20109;-83
2022/01/26 11:09:24;;;;;;;29.20;15.98;;;6.90;78.70;;;;;;4996112;28;20046;-84
2022/01/26 11:12:26;;;;;;;27.70;14.93;;;6.90;78.70;;;;;;4995687;28;20033;-84
2022/01/26 11:15:06;;;;;;;29.10;15.57;;;6.90;78.80;;;;;;5044544;28;20457;-85
2022/01/26 11:17:37;;;;;;;24.77;14.88;;;6.90;78.70;;;;;;5017014;28;20034;-83
2022/01/26 11:20:29;;;;;;;25.55;14.88;;;6.90;78.60;;;;;;5016926;28;20030;-85
2022/01/26 11:22:57;;;;;;;22.55;13.75;;;6.90;78.80;;;;;;5015171;28;20080;-84
2022/01/26 11:25:28;;;;;;;24.85;14.35;;;7.00;78.70;;;;;;5015431;28;20036;-86
2022/01/26 11:27:55;;;;;;;22.77;14.43;;;6.90;78.70;;;;;;5015298;28;20075;-85
2022/01/26 11:30:25;;;;;;;22.77;13.57;;;7.00;78.70;;;;;;5015599;28;20029;-83
2022/01/26 11:32:53;;;;;;;22.80;12.68;;;7.00;78.70;;;;;;5015515;28;20029;-85
2022/01/26 11:35:21;;;;;;;24.23;14.55;;;7.00;78.70;;;;;;5015351;28;20021;-84
2022/01/26 11:47:03;;;;;;;23.15;13.48;;;7.00;78.70;;;;;;5031515;28;20048;-85
2022/01/26 11:49:38;;;;;;;23.13;13.85;;;7.00;78.60;;;;;;5014272;28;20021;-84
2022/01/26 11:52:25;;;;;;;22.95;14.07;;;7.00;78.80;;;;;;5015503;28;20045;-83
2022/01/26 11:54:55;;;;;;;23.80;13.07;;;7.00;78.80;;;;;;5015416;28;20018;-83
2022/01/26 11:57:47;;;;;;;23.13;13.65;;;7.00;78.70;;;;;;5031757;28;20091;-84
2022/01/26 12:00:23;;;;;;;23.30;13.27;;;7.10;78.90;;;;;;5014906;28;20025;-85
2022/01/26 12:02:55;;;;;;;20.30;12.40;;;7.10;78.70;;;;;;5031999;28;20037;-83
2022/01/26 12:05:28;;;;;;;22.60;12.68;;;7.10;78.70;;;;;;5015099;28;20426;-85
2022/01/26 12:08:00;;;;;;;20.48;12.75;;;7.10;78.80;;;;;;5027346;28;20037;-84
2022/01/26 12:10:32;;;;;;;20.92;12.52;;;7.10;78.70;;;;;;5001312;28;20120;-82
2022/01/26 12:13:12;;;;;;;22.55;13.88;;;7.10;78.80;;;;;;5011207;28;20084;-83
2022/01/26 12:15:56;;;;;;;20.33;12.52;;;7.10;78.80;;;;;;5028116;28;20029;-83
2022/01/26 12:35:01;;;;;;;20.83;12.43;;;7.20;78.70;;;;;;5025671;28;20018;-79
2022/01/26 12:45:15;;;;;;;21.10;13.38;;;7.30;78.70;;;;;;5031447;28;20029;-80
2022/01/26 12:47:47;;;;;;;20.95;12.73;;;7.30;78.70;;;;;;5013648;28;20034;-79
2022/01/26 12:50:16;;;;;;;17.73;11.50;;;7.30;78.70;;;;;;5030002;28;20635;-82
2022/01/26 12:52:53;;;;;;;18.55;11.73;;;7.30;78.70;;;;;;5013308;28;20021;-81
2022/01/26 12:55:32;;;;;;;20.48;12.55;;;7.30;78.70;;;;;;5030519;28;20119;-81
2022/01/26 12:57:58;;;;;;;18.55;11.77;;;7.30;78.80;;;;;;5013883;28;20046;-80
2022/01/26 13:00:25;;;;;;;20.70;12.52;;;7.30;78.70;;;;;;5047358;28;20124;-80
2022/01/26 13:02:52;;;;;;;20.30;12.15;;;7.40;78.80;;;;;;5029653;28;20029;-79
2022/01/26 13:05:26;;;;;;;20.70;12.93;;;7.40;78.70;;;;;;5014309;28;20033;-76
2022/01/26 13:08:02;;;;;;;20.90;13.15;;;7.40;78.80;;;;;;5029975;28;20065;-81
2022/01/26 13:10:30;;;;;;;21.52;12.38;;;7.40;78.80;;;;;;5014164;28;20064;-83
2022/01/26 13:13:07;;;;;;;21.15;12.23;;;7.40;78.70;;;;;;5013660;28;20029;-81
2022/01/26 13:15:41;;;;;;;20.42;12.05;;;7.50;78.70;;;;;;5014010;28;20504;-81
2022/01/26 13:18:19;;;;;;;20.50;12.77;;;7.40;78.60;;;;;;5015201;28;20033;-83
2022/01/26 13:23:37;;;;;;;23.02;13.25;;;7.50;78.60;;;;;;5033576;28;20084;-85
2022/01/26 13:26:20;;;;;;;18.00;11.95;;;7.50;78.70;;;;;;5013873;28;20095;-79
2022/01/26 13:29:13;;;;;;;20.48;12.68;;;7.50;78.60;;;;;;4997510;28;20029;-84
2022/01/26 13:48:57;;;;;;;19.45;11.60;;;7.60;78.60;;;;;;4973749;28;20043;-80
2022/01/26 13:56:55;;;;;;;17.63;11.23;;;7.60;78.60;;;;;;5030834;28;20033;-82
2022/01/26 14:01:50;;;;;;;18.55;11.68;;;7.70;78.60;;;;;;5033710;28;20052;-82
2022/01/26 14:04:34;;;;;;;19.90;12.25;;;7.70;78.60;;;;;;5033702;28;20079;-80
2022/01/26 14:07:00;;;;;;;18.52;12.13;;;7.70;78.70;;;;;;5048873;28;20053;-81
2022/01/26 14:09:26;;;;;;;18.50;12.20;;;7.70;78.50;;;;;;5030426;28;20026;-82
2022/01/26 14:11:52;;;;;;;18.48;12.23;;;7.70;78.50;;;;;;5014343;28;20041;-81
2022/01/26 14:14:29;;;;;;;19.10;12.00;;;7.80;78.50;;;;;;5016574;28;20060;-81
2022/01/26 14:16:57;;;;;;;18.17;11.73;;;7.80;78.50;;;;;;5033041;28;20490;-80
2022/01/26 14:27:24;;;;;;;19.02;12.55;;;7.80;78.40;;;;;;5032710;28;20045;-80
2022/01/26 14:30:16;;;;;;;19.48;12.55;;;7.80;78.40;;;;;;5031151;28;20029;-85
2022/01/26 14:51:39;;;;;;;19.17;11.73;;;7.90;78.40;;;;;;5049050;28;20063;-80
2022/01/26 14:54:18;;;;;;;19.80;12.75;;;7.90;78.40;;;;;;5032952;28;20470;-82
2022/01/26 15:35:28;;;;;;;19.00;11.32;;;7.90;78.40;;;;;;5028941;28;20052;-81
2022/01/26 15:52:12;;;;;;;17.38;11.82;;;8.00;78.40;;;;;;5036580;28;20043;-81
2022/01/26 15:58:22;;;;;;;17.85;11.75;;;8.00;78.40;;;;;;5042158;28;20037;-81
2022/01/26 16:37:43;;;;;;;15.25;11.10;;;8.00;78.50;;;;;;5028505;28;20092;-81
2022/01/26 17:02:31;;;;;;;18.02;11.38;;;8.00;78.30;;;;;;5008369;28;20033;-81
2022/01/26 18:40:33;;;;;;;24.10;14.82;;;8.10;78.50;;;;;;4981969;28;20030;-82
2022/01/26 18:50:58;;;;;;;22.27;14.75;;;8.00;78.50;;;;;;5018497;28;20040;-80
2022/01/26 18:53:24;;;;;;;23.48;15.80;;;8.00;78.40;;;;;;5014111;28;20373;-83
2022/01/26 18:55:51;;;;;;;25.98;16.25;;;8.00;78.40;;;;;;5013359;28;20038;-79
2022/01/26 18:58:17;;;;;;;23.35;15.70;;;8.00;78.50;;;;;;5029681;28;20034;-81
2022/01/26 19:11:41;;;;;;;23.38;14.65;;;8.00;78.50;;;;;;4986602;28;20072;-79
2022/01/26 19:16:09;;;;;;;23.35;13.77;;;7.90;78.50;;;;;;4976263;28;20059;-82
2022/01/26 19:24:20;;;;;;;23.95;14.43;;;7.90;78.70;;;;;;4929388;29;20474;-79
2022/01/26 19:28:01;;;;;;;21.35;13.88;;;7.90;78.70;;;;;;4909515;29;20113;-83
2022/01/26 19:55:29;;;;;;;21.00;12.80;;;7.90;78.70;;;;;;5046506;28;20051;-79
2022/01/26 20:03:07;;;;;;;19.38;12.18;;;7.80;78.60;;;;;;5059585;28;19988;-79
2022/01/26 20:15:22;;;;;;;20.83;12.40;;;7.80;78.90;;;;;;5035543;28;20052;-79
2022/01/26 20:18:26;;;;;;;21.40;12.82;;;7.80;79.00;;;;;;5009039;28;20438;-83
2022/01/26 20:21:14;;;;;;;21.48;13.35;;;7.80;78.90;;;;;;5027574;28;20052;-81
2022/01/26 20:23:44;;;;;;;21.83;13.13;;;7.80;78.80;;;;;;4982570;28;20509;-79
2022/01/26 20:26:37;;;;;;;24.58;14.90;;;7.80;78.90;;;;;;4981533;28;20060;-79
2022/01/26 20:33:13;;;;;;;22.05;12.93;;;7.80;78.90;;;;;;5000750;28;20033;-81
2022/01/26 20:35:40;;;;;;;21.70;13.57;;;7.80;78.80;;;;;;4996946;28;20046;-83
2022/01/26 20:38:08;;;;;;;22.10;14.30;;;7.80;78.70;;;;;;5013687;28;20034;-79
2022/01/26 20:40:45;;;;;;;21.80;13.95;;;7.80;78.70;;;;;;4981796;28;20041;-82
2022/01/26 20:43:32;;;;;;;22.63;14.30;;;7.80;78.70;;;;;;4995886;28;20061;-80
2022/01/26 20:46:31;;;;;;;22.55;13.98;;;7.80;78.70;;;;;;5029257;28;20037;-82
2022/01/26 20:48:58;;;;;;;24.58;14.65;;;7.90;78.70;;;;;;5018051;28;20048;-81
2022/01/26 20:51:28;;;;;;;24.55;13.77;;;7.80;78.60;;;;;;5013098;28;20140;-81
2022/01/26 20:54:11;;;;;;;22.98;13.80;;;7.90;78.70;;;;;;5014882;28;20125;-81
2022/01/26 20:56:49;;;;;;;23.17;14.13;;;7.90;78.70;;;;;;5015571;28;20088;-80
2022/01/26 20:59:15;;;;;;;23.70;14.80;;;7.90;78.60;;;;;;5014889;28;20109;-82
2022/01/26 21:01:52;;;;;;;23.02;13.32;;;7.90;78.60;;;;;;4996372;28;20091;-80
2022/01/26 21:04:19;;;;;;;22.63;13.85;;;7.90;78.70;;;;;;5014368;28;20029;-86
2022/01/26 21:06:46;;;;;;;23.95;15.35;;;7.90;78.60;;;;;;5017363;28;20098;-81
2022/01/26 21:09:11;;;;;;;25.65;13.70;;;7.90;78.60;;;;;;5001502;28;20030;-79
2022/01/26 21:11:39;;;;;;;22.27;14.27;;;7.90;78.60;;;;;;5006083;28;20477;-82
2022/01/26 21:14:04;;;;;;;21.90;13.73;;;7.90;78.50;;;;;;5001837;28;20061;-83
2022/01/26 21:16:31;;;;;;;23.65;14.73;;;7.90;78.50;;;;;;5030532;28;20112;-82
2022/01/26 21:19:06;;;;;;;21.02;13.52;;;7.90;78.50;;;;;;5015698;28;20099;-80
2022/01/26 21:21:31;;;;;;;23.35;14.07;;;7.90;78.50;;;;;;5020570;28;20029;-81